sensor_id;sensor_type;location;lat;lon;timestamp;temperature;humidity
33717;DHT22;20046;50.746;7.072;2023-03-01T00:01:50;-1.50;99.90
33717;DHT22;20046;50.746;7.072;2023-03-01T00:04:16;-1.50;99.90
33717;DHT22;20046;50.746;7.072;2023-03-01T00:06:44;-1.50;99.90
33717;DHT22;20046;50.746;7.072;2023-03-01T00:09:14;-1.60;99.90
33717;DHT22;20046;50.746;7.072;2023-03-01T00:11:40;-1.60;99.90
33717;DHT22;20046;50.746;7.072;2023-03-01T00:14:06;-1.60;99.90
33717;DHT22;20046;50.746;7.072;2023-03-01T00:16:42;-1.60;99.90
33717;DHT22;20046;50.746;7.072;2023-03-01T00:19:13;-1.60;99.90
33717;DHT22;20046;50.746;7.072;2023-03-01T00:21:38;-1.60;99.90
33717;DHT22;20046;50.746;7.072;2023-03-01T00:24:04;-1.60;99.90
33717;DHT22;20046;50.746;7.072;2023-03-01T00:26:30;-1.60;99.90
33717;DHT22;20046;50.746;7.072;2023-03-01T00:28:57;-1.60;99.90
33717;DHT22;20046;50.746;7.072;2023-03-01T00:31:24;-1.70;99.90
33717;DHT22;20046;50.746;7.072;2023-03-01T00:33:54;-1.70;99.90
33717;DHT22;20046;50.746;7.072;2023-03-01T00:36:25;-1.80;99.90
33717;DHT22;20046;50.746;7.072;2023-03-01T00:38:52;-1.80;99.90
33717;DHT22;20046;50.746;7.072;2023-03-01T00:41:18;-1.90;99.90
33717;DHT22;20046;50.746;7.072;2023-03-01T00:43:45;-1.90;99.90
33717;DHT22;20046;50.746;7.072;2023-03-01T00:46:13;-1.90;99.90
33717;DHT22;20046;50.746;7.072;2023-03-01T00:48:40;-1.90;99.90
33717;DHT22;20046;50.746;7.072;2023-03-01T00:51:11;-1.90;99.90
33717;DHT22;20046;50.746;7.072;2023-03-01T00:53:37;-2.00;99.90
33717;DHT22;20046;50.746;7.072;2023-03-01T00:56:04;-2.00;99.90
33717;DHT22;20046;50.746;7.072;2023-03-01T00:58:30;-2.10;99.90
33717;DHT22;20046;50.746;7.072;2023-03-01T01:00:56;-2.10;99.90
33717;DHT22;20046;50.746;7.072;2023-03-01T01:03:22;-2.20;99.90
33717;DHT22;20046;50.746;7.072;2023-03-01T01:05:50;-2.20;99.90
33717;DHT22;20046;50.746;7.072;2023-03-01T01:08:16;-2.20;99.90
33717;DHT22;20046;50.746;7.072;2023-03-01T01:10:44;-2.20;99.90
33717;DHT22;20046;50.746;7.072;2023-03-01T01:13:10;-2.30;99.90
33717;DHT22;20046;50.746;7.072;2023-03-01T01:15:36;-2.20;99.90
33717;DHT22;20046;50.746;7.072;2023-03-01T01:18:01;-2.20;99.90
33717;DHT22;20046;50.746;7.072;2023-03-01T01:20:27;-2.30;99.90
33717;DHT22;20046;50.746;7.072;2023-03-01T01:22:53;-2.30;99.90
33717;DHT22;20046;50.746;7.072;2023-03-01T01:25:18;-2.30;99.90
33717;DHT22;20046;50.746;7.072;2023-03-01T01:27:44;-2.30;99.90
33717;DHT22;20046;50.746;7.072;2023-03-01T01:30:10;-2.30;99.90
33717;DHT22;20046;50.746;7.072;2023-03-01T01:32:36;-2.30;99.90
33717;DHT22;20046;50.746;7.072;2023-03-01T01:35:02;-2.30;99.90
33717;DHT22;20046;50.746;7.072;2023-03-01T01:37:27;-2.30;99.90
33717;DHT22;20046;50.746;7.072;2023-03-01T01:39:57;-2.40;99.90
33717;DHT22;20046;50.746;7.072;2023-03-01T01:42:24;-2.40;99.90
33717;DHT22;20046;50.746;7.072;2023-03-01T01:47:55;-2.50;99.90
33717;DHT22;20046;50.746;7.072;2023-03-01T01:50:22;-2.50;99.90
33717;DHT22;20046;50.746;7.072;2023-03-01T01:52:50;-2.50;99.90
33717;DHT22;20046;50.746;7.072;2023-03-01T01:55:22;-2.50;99.90
33717;DHT22;20046;50.746;7.072;2023-03-01T01:57:54;-2.60;99.90
33717;DHT22;20046;50.746;7.072;2023-03-01T02:00:23;-2.60;99.90
33717;DHT22;20046;50.746;7.072;2023-03-01T02:02:51;-2.60;99.90
33717;DHT22;20046;50.746;7.072;2023-03-01T02:08:02;-2.80;99.90
33717;DHT22;20046;50.746;7.072;2023-03-01T02:10:28;-2.80;99.90
33717;DHT22;20046;50.746;7.072;2023-03-01T02:12:55;-2.80;99.90
33717;DHT22;20046;50.746;7.072;2023-03-01T02:15:23;-2.90;99.90
33717;DHT22;20046;50.746;7.072;2023-03-01T02:17:49;-2.90;99.90
33717;DHT22;20046;50.746;7.072;2023-03-01T02:22:59;-3.00;99.90
33717;DHT22;20046;50.746;7.072;2023-03-01T02:25:55;-3.00;99.90
33717;DHT22;20046;50.746;7.072;2023-03-01T02:28:38;-3.00;99.90
33717;DHT22;20046;50.746;7.072;2023-03-01T02:31:07;-2.90;99.90
33717;DHT22;20046;50.746;7.072;2023-03-01T02:33:52;-2.90;99.90
33717;DHT22;20046;50.746;7.072;2023-03-01T02:36:24;-2.90;99.90
33717;DHT22;20046;50.746;7.072;2023-03-01T02:38:53;-2.90;99.90
33717;DHT22;20046;50.746;7.072;2023-03-01T02:41:21;-3.00;99.90
33717;DHT22;20046;50.746;7.072;2023-03-01T02:43:48;-3.00;99.90
33717;DHT22;20046;50.746;7.072;2023-03-01T02:46:23;-3.00;99.90
33717;DHT22;20046;50.746;7.072;2023-03-01T02:48:53;-2.90;99.90
33717;DHT22;20046;50.746;7.072;2023-03-01T02:56:43;-3.00;99.90
33717;DHT22;20046;50.746;7.072;2023-03-01T02:59:09;-3.10;99.90
33717;DHT22;20046;50.746;7.072;2023-03-01T03:01:35;-3.10;99.90
33717;DHT22;20046;50.746;7.072;2023-03-01T03:04:09;-3.10;99.90
33717;DHT22;20046;50.746;7.072;2023-03-01T03:06:36;-3.10;99.90
33717;DHT22;20046;50.746;7.072;2023-03-01T03:09:03;-3.20;99.90
33717;DHT22;20046;50.746;7.072;2023-03-01T03:11:28;-3.10;99.90
33717;DHT22;20046;50.746;7.072;2023-03-01T03:13:54;-3.10;99.90
33717;DHT22;20046;50.746;7.072;2023-03-01T03:16:21;-3.20;99.90
33717;DHT22;20046;50.746;7.072;2023-03-01T03:18:46;-3.20;99.90
33717;DHT22;20046;50.746;7.072;2023-03-01T03:21:12;-3.20;99.90
33717;DHT22;20046;50.746;7.072;2023-03-01T03:23:39;-3.20;99.90
33717;DHT22;20046;50.746;7.072;2023-03-01T03:26:05;-3.30;99.90
33717;DHT22;20046;50.746;7.072;2023-03-01T03:28:32;-3.30;99.90
33717;DHT22;20046;50.746;7.072;2023-03-01T03:30:59;-3.30;99.90
33717;DHT22;20046;50.746;7.072;2023-03-01T03:33:32;-3.30;99.90
33717;DHT22;20046;50.746;7.072;2023-03-01T03:35:58;-3.30;99.90
33717;DHT22;20046;50.746;7.072;2023-03-01T03:38:23;-3.40;99.90
33717;DHT22;20046;50.746;7.072;2023-03-01T03:41:00;-3.50;99.90
33717;DHT22;20046;50.746;7.072;2023-03-01T03:43:28;-3.50;99.90
33717;DHT22;20046;50.746;7.072;2023-03-01T03:45:54;-3.50;99.90
33717;DHT22;20046;50.746;7.072;2023-03-01T03:48:20;-3.60;99.90
33717;DHT22;20046;50.746;7.072;2023-03-01T03:50:51;-3.60;99.90
33717;DHT22;20046;50.746;7.072;2023-03-01T03:53:18;-3.60;99.90
33717;DHT22;20046;50.746;7.072;2023-03-01T03:55:44;-3.60;99.90
33717;DHT22;20046;50.746;7.072;2023-03-01T03:58:10;-3.60;99.90
33717;DHT22;20046;50.746;7.072;2023-03-01T04:00:41;-3.60;99.90
33717;DHT22;20046;50.746;7.072;2023-03-01T04:03:08;-3.60;99.90
33717;DHT22;20046;50.746;7.072;2023-03-01T04:05:35;-3.60;99.90
33717;DHT22;20046;50.746;7.072;2023-03-01T04:08:01;-3.70;99.90
33717;DHT22;20046;50.746;7.072;2023-03-01T04:10:29;-3.70;99.90
33717;DHT22;20046;50.746;7.072;2023-03-01T04:12:55;-3.70;99.90
33717;DHT22;20046;50.746;7.072;2023-03-01T04:15:22;-3.70;99.90
33717;DHT22;20046;50.746;7.072;2023-03-01T04:17:50;-3.70;99.90
33717;DHT22;20046;50.746;7.072;2023-03-01T04:20:20;-3.70;99.90
33717;DHT22;20046;50.746;7.072;2023-03-01T04:23:01;-3.70;99.90
33717;DHT22;20046;50.746;7.072;2023-03-01T04:25:57;-3.70;99.90
33717;DHT22;20046;50.746;7.072;2023-03-01T04:28:43;-3.70;99.90
33717;DHT22;20046;50.746;7.072;2023-03-01T04:31:14;-3.80;99.90
33717;DHT22;20046;50.746;7.072;2023-03-01T04:33:42;-3.80;99.90
33717;DHT22;20046;50.746;7.072;2023-03-01T04:36:09;-3.90;99.90
33717;DHT22;20046;50.746;7.072;2023-03-01T04:38:38;-3.90;99.90
33717;DHT22;20046;50.746;7.072;2023-03-01T04:41:09;-3.90;99.90
33717;DHT22;20046;50.746;7.072;2023-03-01T04:43:35;-3.90;99.90
33717;DHT22;20046;50.746;7.072;2023-03-01T04:46:08;-3.90;99.90
33717;DHT22;20046;50.746;7.072;2023-03-01T04:48:35;-3.90;99.90
33717;DHT22;20046;50.746;7.072;2023-03-01T04:51:01;-3.90;99.90
33717;DHT22;20046;50.746;7.072;2023-03-01T04:53:27;-3.90;99.90
33717;DHT22;20046;50.746;7.072;2023-03-01T04:55:54;-4.00;99.90
33717;DHT22;20046;50.746;7.072;2023-03-01T04:58:24;-4.00;99.90
33717;DHT22;20046;50.746;7.072;2023-03-01T05:00:50;-3.90;99.90
33717;DHT22;20046;50.746;7.072;2023-03-01T05:03:16;-3.90;99.90
33717;DHT22;20046;50.746;7.072;2023-03-01T05:05:46;-3.80;99.90
33717;DHT22;20046;50.746;7.072;2023-03-01T05:08:13;-3.80;99.90
33717;DHT22;20046;50.746;7.072;2023-03-01T05:10:50;-3.80;99.90
33717;DHT22;20046;50.746;7.072;2023-03-01T05:13:17;-3.80;99.90
33717;DHT22;20046;50.746;7.072;2023-03-01T05:15:57;-3.80;99.90
33717;DHT22;20046;50.746;7.072;2023-03-01T05:18:23;-3.90;99.90
33717;DHT22;20046;50.746;7.072;2023-03-01T05:20:55;-3.90;99.90
33717;DHT22;20046;50.746;7.072;2023-03-01T05:23:24;-3.90;99.90
33717;DHT22;20046;50.746;7.072;2023-03-01T05:25:50;-4.00;99.90
33717;DHT22;20046;50.746;7.072;2023-03-01T05:28:19;-4.10;99.90
33717;DHT22;20046;50.746;7.072;2023-03-01T05:30:45;-4.20;99.90
33717;DHT22;20046;50.746;7.072;2023-03-01T05:33:11;-4.20;99.90
33717;DHT22;20046;50.746;7.072;2023-03-01T05:35:42;-4.20;99.90
33717;DHT22;20046;50.746;7.072;2023-03-01T05:38:12;-4.10;99.90
33717;DHT22;20046;50.746;7.072;2023-03-01T05:40:39;-4.10;99.90
33717;DHT22;20046;50.746;7.072;2023-03-01T05:43:05;-4.20;99.90
33717;DHT22;20046;50.746;7.072;2023-03-01T05:45:31;-4.20;99.90
33717;DHT22;20046;50.746;7.072;2023-03-01T05:48:00;-4.30;99.90
33717;DHT22;20046;50.746;7.072;2023-03-01T05:50:28;-4.30;99.90
33717;DHT22;20046;50.746;7.072;2023-03-01T05:53:02;-4.40;99.90
33717;DHT22;20046;50.746;7.072;2023-03-01T05:55:29;-4.40;99.90
33717;DHT22;20046;50.746;7.072;2023-03-01T05:57:59;-4.40;99.90
33717;DHT22;20046;50.746;7.072;2023-03-01T06:00:25;-4.40;99.90
33717;DHT22;20046;50.746;7.072;2023-03-01T06:02:51;-4.40;99.90
33717;DHT22;20046;50.746;7.072;2023-03-01T06:05:19;-4.30;99.90
33717;DHT22;20046;50.746;7.072;2023-03-01T06:07:45;-4.30;99.90
33717;DHT22;20046;50.746;7.072;2023-03-01T06:10:12;-4.30;99.90
33717;DHT22;20046;50.746;7.072;2023-03-01T06:12:40;-4.30;99.90
33717;DHT22;20046;50.746;7.072;2023-03-01T06:15:06;-4.30;99.90
33717;DHT22;20046;50.746;7.072;2023-03-01T06:17:36;-4.30;99.90
33717;DHT22;20046;50.746;7.072;2023-03-01T06:20:24;-4.30;99.90
33717;DHT22;20046;50.746;7.072;2023-03-01T06:22:50;-4.30;99.90
33717;DHT22;20046;50.746;7.072;2023-03-01T06:25:18;-4.30;99.90
33717;DHT22;20046;50.746;7.072;2023-03-01T06:27:44;-4.30;99.90
33717;DHT22;20046;50.746;7.072;2023-03-01T06:30:12;-4.30;99.90
33717;DHT22;20046;50.746;7.072;2023-03-01T06:32:39;-4.20;99.90
33717;DHT22;20046;50.746;7.072;2023-03-01T06:35:11;-4.20;99.90
33717;DHT22;20046;50.746;7.072;2023-03-01T06:37:38;-4.20;99.90
33717;DHT22;20046;50.746;7.072;2023-03-01T06:40:04;-4.20;99.90
33717;DHT22;20046;50.746;7.072;2023-03-01T06:42:37;-4.10;99.90
33717;DHT22;20046;50.746;7.072;2023-03-01T06:45:05;-4.10;99.90
33717;DHT22;20046;50.746;7.072;2023-03-01T06:47:31;-4.00;99.90
33717;DHT22;20046;50.746;7.072;2023-03-01T06:49:58;-3.90;99.90
33717;DHT22;20046;50.746;7.072;2023-03-01T06:52:24;-3.80;99.90
33717;DHT22;20046;50.746;7.072;2023-03-01T06:54:50;-3.80;99.90
33717;DHT22;20046;50.746;7.072;2023-03-01T06:57:15;-3.70;99.90
33717;DHT22;20046;50.746;7.072;2023-03-01T06:59:41;-3.70;99.90
33717;DHT22;20046;50.746;7.072;2023-03-01T07:02:10;-3.50;99.90
33717;DHT22;20046;50.746;7.072;2023-03-01T07:04:35;-3.30;99.90
33717;DHT22;20046;50.746;7.072;2023-03-01T07:07:01;-3.00;99.90
33717;DHT22;20046;50.746;7.072;2023-03-01T07:09:27;-2.80;99.90
33717;DHT22;20046;50.746;7.072;2023-03-01T07:11:52;-2.40;99.90
33717;DHT22;20046;50.746;7.072;2023-03-01T07:14:18;-2.10;99.90
33717;DHT22;20046;50.746;7.072;2023-03-01T07:16:45;-1.80;99.90
33717;DHT22;20046;50.746;7.072;2023-03-01T07:19:11;-1.60;99.90
33717;DHT22;20046;50.746;7.072;2023-03-01T07:21:36;-1.30;99.90
33717;DHT22;20046;50.746;7.072;2023-03-01T07:24:07;-1.30;99.90
33717;DHT22;20046;50.746;7.072;2023-03-01T07:26:34;-1.00;99.90
33717;DHT22;20046;50.746;7.072;2023-03-01T07:29:04;-0.80;99.90
33717;DHT22;20046;50.746;7.072;2023-03-01T07:31:30;-0.60;99.90
33717;DHT22;20046;50.746;7.072;2023-03-01T07:33:56;-0.40;99.90
33717;DHT22;20046;50.746;7.072;2023-03-01T07:36:23;-0.30;99.90
33717;DHT22;20046;50.746;7.072;2023-03-01T07:38:49;0.00;99.90
33717;DHT22;20046;50.746;7.072;2023-03-01T07:41:15;0.40;99.90
33717;DHT22;20046;50.746;7.072;2023-03-01T07:43:41;0.50;99.90
33717;DHT22;20046;50.746;7.072;2023-03-01T07:46:06;0.50;99.90
33717;DHT22;20046;50.746;7.072;2023-03-01T07:48:33;0.40;99.90
33717;DHT22;20046;50.746;7.072;2023-03-01T07:51:02;0.20;99.90
33717;DHT22;20046;50.746;7.072;2023-03-01T07:53:28;0.10;99.90
33717;DHT22;20046;50.746;7.072;2023-03-01T07:56:20;0.00;99.90
33717;DHT22;20046;50.746;7.072;2023-03-01T07:58:47;0.10;99.90
33717;DHT22;20046;50.746;7.072;2023-03-01T08:01:16;0.40;99.90
33717;DHT22;20046;50.746;7.072;2023-03-01T08:03:42;0.70;99.90
33717;DHT22;20046;50.746;7.072;2023-03-01T08:06:12;1.00;99.90
33717;DHT22;20046;50.746;7.072;2023-03-01T08:08:38;1.30;99.90
33717;DHT22;20046;50.746;7.072;2023-03-01T08:11:06;1.60;99.90
33717;DHT22;20046;50.746;7.072;2023-03-01T08:13:31;2.00;99.90
33717;DHT22;20046;50.746;7.072;2023-03-01T08:16:05;2.40;99.90
33717;DHT22;20046;50.746;7.072;2023-03-01T08:18:31;3.00;99.90
33717;DHT22;20046;50.746;7.072;2023-03-01T08:21:11;3.50;99.90
33717;DHT22;20046;50.746;7.072;2023-03-01T08:23:37;4.10;99.90
33717;DHT22;20046;50.746;7.072;2023-03-01T08:26:24;4.40;99.90
33717;DHT22;20046;50.746;7.072;2023-03-01T08:28:49;4.30;99.90
33717;DHT22;20046;50.746;7.072;2023-03-01T08:31:18;4.00;99.90
33717;DHT22;20046;50.746;7.072;2023-03-01T08:33:45;3.90;99.90
33717;DHT22;20046;50.746;7.072;2023-03-01T08:36:16;3.70;99.90
33717;DHT22;20046;50.746;7.072;2023-03-01T08:38:42;3.90;99.90
33717;DHT22;20046;50.746;7.072;2023-03-01T08:41:07;4.10;99.90
33717;DHT22;20046;50.746;7.072;2023-03-01T08:43:33;4.20;99.90
33717;DHT22;20046;50.746;7.072;2023-03-01T08:45:58;4.50;99.90
33717;DHT22;20046;50.746;7.072;2023-03-01T08:48:24;4.70;99.90
33717;DHT22;20046;50.746;7.072;2023-03-01T08:50:51;5.20;99.90
33717;DHT22;20046;50.746;7.072;2023-03-01T08:53:16;5.30;99.90
33717;DHT22;20046;50.746;7.072;2023-03-01T08:55:42;5.00;99.90
33717;DHT22;20046;50.746;7.072;2023-03-01T08:58:07;5.10;99.90
33717;DHT22;20046;50.746;7.072;2023-03-01T09:00:33;5.60;99.90
33717;DHT22;20046;50.746;7.072;2023-03-01T09:03:00;6.10;99.90
33717;DHT22;20046;50.746;7.072;2023-03-01T09:05:25;6.70;99.90
33717;DHT22;20046;50.746;7.072;2023-03-01T09:07:51;7.30;99.90
33717;DHT22;20046;50.746;7.072;2023-03-01T09:10:16;7.80;99.90
33717;DHT22;20046;50.746;7.072;2023-03-01T09:12:42;8.20;99.30
33717;DHT22;20046;50.746;7.072;2023-03-01T09:15:08;8.40;97.70
33717;DHT22;20046;50.746;7.072;2023-03-01T09:17:34;8.10;97.00
33717;DHT22;20046;50.746;7.072;2023-03-01T09:20:00;7.90;96.20
33717;DHT22;20046;50.746;7.072;2023-03-01T09:22:25;7.70;96.10
33717;DHT22;20046;50.746;7.072;2023-03-01T09:24:51;8.30;96.30
33717;DHT22;20046;50.746;7.072;2023-03-01T09:27:16;8.00;94.80
33717;DHT22;20046;50.746;7.072;2023-03-01T09:29:44;7.70;94.70
33717;DHT22;20046;50.746;7.072;2023-03-01T09:32:10;7.60;95.80
33717;DHT22;20046;50.746;7.072;2023-03-01T09:34:36;8.10;96.10
33717;DHT22;20046;50.746;7.072;2023-03-01T09:37:21;8.40;95.10
33717;DHT22;20046;50.746;7.072;2023-03-01T09:39:47;8.90;93.80
33717;DHT22;20046;50.746;7.072;2023-03-01T09:42:13;9.20;92.90
33717;DHT22;20046;50.746;7.072;2023-03-01T09:47:29;9.50;92.00
33717;DHT22;20046;50.746;7.072;2023-03-01T09:54:58;9.10;91.80
33717;DHT22;20046;50.746;7.072;2023-03-01T10:02:49;9.40;90.60
33717;DHT22;20046;50.746;7.072;2023-03-01T10:05:38;8.90;90.70
33717;DHT22;20046;50.746;7.072;2023-03-01T10:10:57;8.20;92.10
33717;DHT22;20046;50.746;7.072;2023-03-01T10:13:25;8.60;91.20
33717;DHT22;20046;50.746;7.072;2023-03-01T10:15:58;9.00;91.10
33717;DHT22;20046;50.746;7.072;2023-03-01T10:18:29;8.90;90.00
33717;DHT22;20046;50.746;7.072;2023-03-01T10:21:02;10.30;89.30
33717;DHT22;20046;50.746;7.072;2023-03-01T10:23:31;11.70;85.90
33717;DHT22;20046;50.746;7.072;2023-03-01T10:26:15;12.40;81.80
33717;DHT22;20046;50.746;7.072;2023-03-01T10:29:04;12.60;78.90
33717;DHT22;20046;50.746;7.072;2023-03-01T10:31:45;12.80;76.80
33717;DHT22;20046;50.746;7.072;2023-03-01T10:34:32;12.50;75.70
33717;DHT22;20046;50.746;7.072;2023-03-01T10:37:20;12.30;75.50
33717;DHT22;20046;50.746;7.072;2023-03-01T10:40:08;11.90;75.90
33717;DHT22;20046;50.746;7.072;2023-03-01T10:42:37;11.10;76.60
33717;DHT22;20046;50.746;7.072;2023-03-01T10:45:30;11.00;77.10
33717;DHT22;20046;50.746;7.072;2023-03-01T10:48:14;10.80;76.80
33717;DHT22;20046;50.746;7.072;2023-03-01T10:50:41;10.60;75.60
33717;DHT22;20046;50.746;7.072;2023-03-01T10:53:21;10.70;77.20
33717;DHT22;20046;50.746;7.072;2023-03-01T10:58:26;10.90;76.30
33717;DHT22;20046;50.746;7.072;2023-03-01T11:06:21;10.70;74.70
33717;DHT22;20046;50.746;7.072;2023-03-01T11:08:49;11.50;76.20
33717;DHT22;20046;50.746;7.072;2023-03-01T11:11:22;12.20;74.80
33717;DHT22;20046;50.746;7.072;2023-03-01T11:14:12;12.70;72.70
33717;DHT22;20046;50.746;7.072;2023-03-01T11:16:40;12.80;71.30
33717;DHT22;20046;50.746;7.072;2023-03-01T11:22:00;12.60;69.60
33717;DHT22;20046;50.746;7.072;2023-03-01T11:24:31;13.70;68.80
33717;DHT22;20046;50.746;7.072;2023-03-01T11:27:00;14.40;67.20
33717;DHT22;20046;50.746;7.072;2023-03-01T11:29:39;14.40;66.60
33717;DHT22;20046;50.746;7.072;2023-03-01T11:32:09;15.30;65.50
33717;DHT22;20046;50.746;7.072;2023-03-01T11:35:10;16.10;62.20
33717;DHT22;20046;50.746;7.072;2023-03-01T11:37:49;17.20;59.80
33717;DHT22;20046;50.746;7.072;2023-03-01T11:43:37;17.90;56.70
33717;DHT22;20046;50.746;7.072;2023-03-01T11:49:36;17.90;55.30
33717;DHT22;20046;50.746;7.072;2023-03-01T11:52:17;19.70;53.80
33717;DHT22;20046;50.746;7.072;2023-03-01T11:58:18;20.60;50.00
33717;DHT22;20046;50.746;7.072;2023-03-01T12:01:12;21.50;47.90
33717;DHT22;20046;50.746;7.072;2023-03-01T12:04:12;21.50;46.60
33717;DHT22;20046;50.746;7.072;2023-03-01T12:17:36;19.60;45.80
33717;DHT22;20046;50.746;7.072;2023-03-01T12:20:18;20.30;46.80
33717;DHT22;20046;50.746;7.072;2023-03-01T12:25:48;21.90;44.10
33717;DHT22;20046;50.746;7.072;2023-03-01T12:31:36;22.10;42.90
33717;DHT22;20046;50.746;7.072;2023-03-01T12:37:03;23.00;41.20
33717;DHT22;20046;50.746;7.072;2023-03-01T12:45:50;24.40;39.20
33717;DHT22;20046;50.746;7.072;2023-03-01T12:50:42;24.20;38.50
33717;DHT22;20046;50.746;7.072;2023-03-01T12:53:24;24.00;39.00
33717;DHT22;20046;50.746;7.072;2023-03-01T12:55:51;24.00;38.10
33717;DHT22;20046;50.746;7.072;2023-03-01T13:01:26;24.30;37.70
33717;DHT22;20046;50.746;7.072;2023-03-01T13:04:28;23.60;38.70
33717;DHT22;20046;50.746;7.072;2023-03-01T13:07:30;23.70;38.10
